Ojito, New Mexico
Current Conditions -  °F | °C
As of 5:15 AM on Thursday 23 Oct 2014 (Local Time) from KLAM Reporting Station
Clear Clear  
Wind Chill: 50°   Ceiling: Unl
Heat Index: 50°   Visibility: 10mi
Dew Point: 31°   Wind: 3mph
Humidity: 49%   Direction: 180°S
Pressure: 30.29"   Gusts: NA
Location:  36.3753°N, 106.933°W
Report Text: KLAM 231115Z AUTO 18003KT 10SM CLR 10/M01 A3029 RMK AO2 T00981006
Loading
Personal Weather Stations






























Interactive Weather Map
Tropical Storm Tracking
New forecast layout! Learn more

10-Day Weather Forecast

Advertisements
Track Severe Weather on mobile